createdAt,value
2019-04-04T00:01:17.816Z,8.00
2019-04-04T00:03:46.273Z,8.00
2019-04-04T00:06:14.707Z,8.10
2019-04-04T00:08:43.161Z,8.00
2019-04-04T00:11:11.594Z,8.00
2019-04-04T00:13:41.962Z,8.00
2019-04-04T00:16:10.487Z,7.90
2019-04-04T00:18:39.181Z,7.90
2019-04-04T00:21:07.638Z,8.00
2019-04-04T00:23:38.093Z,8.00
2019-04-04T00:26:06.250Z,8.00
2019-04-04T00:28:34.719Z,8.00
2019-04-04T00:31:03.205Z,8.00
2019-04-04T00:33:31.637Z,8.10
2019-04-04T00:36:00.725Z,8.10
2019-04-04T00:38:30.372Z,8.10
2019-04-04T00:40:58.839Z,8.00
2019-04-04T00:43:27.525Z,8.00
2019-04-04T00:45:56.228Z,8.00
2019-04-04T00:48:25.034Z,8.10
2019-04-04T00:50:53.492Z,8.10
2019-04-04T00:53:21.921Z,8.10
2019-04-04T00:55:50.623Z,8.10
2019-04-04T00:58:20.803Z,8.10
2019-04-04T01:00:49.818Z,8.00
2019-04-04T01:03:18.277Z,8.00
2019-04-04T01:05:46.974Z,8.00
2019-04-04T01:08:15.694Z,8.00
2019-04-04T01:10:44.391Z,8.00
2019-04-04T01:13:13.132Z,8.10
2019-04-04T01:15:41.804Z,8.00
2019-04-04T01:18:10.234Z,8.00
2019-04-04T01:20:38.685Z,8.00
2019-04-04T01:23:07.429Z,8.00
2019-04-04T01:25:35.880Z,8.00
2019-04-04T01:28:04.395Z,8.00
2019-04-04T01:30:32.921Z,8.00
2019-04-04T01:33:03.554Z,8.10
2019-04-04T01:35:31.550Z,8.00
2019-04-04T01:38:00.239Z,7.90
2019-04-04T01:40:32.879Z,7.90
2019-04-04T01:43:00.112Z,7.90
2019-04-04T01:45:28.813Z,7.80
2019-04-04T01:47:57.270Z,7.80
2019-04-04T01:50:26.020Z,7.80
2019-04-04T01:52:54.469Z,7.70
2019-04-04T01:55:22.904Z,7.80
2019-04-04T01:57:51.755Z,7.80
2019-04-04T02:00:20.324Z,7.80
2019-04-04T02:02:51.600Z,7.70
2019-04-04T02:05:18.942Z,7.70
2019-04-04T02:07:47.365Z,7.70
2019-04-04T02:10:15.882Z,7.70
2019-04-04T02:12:44.574Z,7.70
2019-04-04T02:15:14.269Z,7.60
2019-04-04T02:17:43.737Z,7.50
2019-04-04T02:20:12.319Z,7.60
2019-04-04T02:22:41.058Z,7.60
2019-04-04T02:25:09.529Z,7.60
2019-04-04T02:27:38.442Z,7.60
2019-04-04T02:30:08.153Z,7.60
2019-04-04T02:32:36.862Z,7.60
2019-04-04T02:35:10.067Z,7.50
2019-04-04T02:37:37.779Z,7.50
2019-04-04T02:40:08.696Z,7.50
2019-04-04T02:42:38.552Z,7.50
2019-04-04T02:45:07.338Z,7.50
2019-04-04T02:47:35.865Z,7.40
2019-04-04T02:50:06.041Z,7.50
2019-04-04T02:52:34.795Z,7.50
2019-04-04T02:55:03.897Z,7.50
2019-04-04T02:57:32.350Z,7.50
2019-04-04T03:00:01.026Z,7.60
2019-04-04T03:02:29.480Z,7.50
2019-04-04T03:04:57.913Z,7.50
2019-04-04T03:07:29.736Z,7.50
2019-04-04T03:09:56.601Z,7.50
2019-04-04T03:12:26.138Z,7.40
2019-04-04T03:14:55.547Z,7.40
2019-04-04T03:17:24.083Z,7.40
2019-04-04T03:19:52.530Z,7.40
2019-04-04T03:22:21.307Z,7.50
2019-04-04T03:24:49.747Z,7.50
2019-04-04T03:27:18.472Z,7.60
2019-04-04T03:29:47.231Z,7.60
2019-04-04T03:32:16.778Z,7.50
2019-04-04T03:34:49.768Z,7.40
2019-04-04T03:37:16.235Z,7.40
2019-04-04T03:39:44.706Z,7.30
2019-04-04T03:42:13.411Z,7.30
2019-04-04T03:44:41.869Z,7.30
2019-04-04T03:47:11.384Z,7.30
2019-04-04T03:49:40.009Z,7.20
2019-04-04T03:52:11.220Z,7.20
2019-04-04T03:54:39.162Z,7.20
2019-04-04T03:57:10.923Z,7.30
2019-04-04T03:59:38.292Z,7.20
2019-04-04T04:02:06.811Z,7.20
2019-04-04T04:04:35.519Z,7.20
2019-04-04T04:07:03.966Z,7.20
2019-04-04T04:09:32.660Z,7.20
2019-04-04T04:12:01.118Z,7.10
2019-04-04T04:14:29.550Z,7.10
2019-04-04T04:16:58.013Z,7.10
2019-04-04T04:19:29.920Z,7.10
2019-04-04T04:21:56.617Z,7.10
2019-04-04T04:24:26.592Z,7.10
2019-04-04T04:26:55.335Z,7.20
2019-04-04T04:29:23.876Z,7.00
2019-04-04T04:31:52.578Z,6.90
2019-04-04T04:34:21.033Z,6.90
2019-04-04T04:36:49.735Z,6.90
2019-04-04T04:39:18.182Z,6.90
2019-04-04T04:41:46.638Z,7.00
2019-04-04T04:44:15.147Z,7.00
2019-04-04T04:46:43.594Z,7.00
2019-04-04T04:49:12.043Z,7.00
2019-04-04T04:51:43.083Z,7.00
2019-04-04T04:54:11.185Z,7.10
2019-04-04T04:56:39.884Z,7.00
2019-04-04T04:59:08.367Z,6.90
2019-04-04T05:01:36.818Z,6.90
2019-04-04T05:04:05.262Z,6.90
2019-04-04T05:06:35.715Z,6.90
2019-04-04T05:09:05.777Z,7.00
2019-04-04T05:11:34.228Z,6.90
2019-04-04T05:14:02.687Z,7.00
2019-04-04T05:16:31.522Z,7.00
2019-04-04T05:18:59.952Z,7.00
2019-04-04T05:21:28.916Z,6.90
2019-04-04T05:23:57.517Z,6.90
2019-04-04T05:26:26.306Z,6.90
2019-04-04T05:28:56.941Z,6.90
2019-04-04T05:31:25.181Z,6.90
2019-04-04T05:33:53.687Z,6.90
2019-04-04T05:36:22.458Z,6.90
2019-04-04T05:38:51.202Z,6.90
2019-04-04T05:41:19.640Z,7.00
2019-04-04T05:43:48.104Z,7.00
2019-04-04T05:46:18.902Z,7.00
2019-04-04T05:48:46.975Z,7.00
2019-04-04T05:51:15.994Z,6.90
2019-04-04T05:53:44.654Z,7.00
2019-04-04T05:56:15.129Z,7.10
2019-04-04T05:58:43.526Z,7.00
2019-04-04T06:01:14.212Z,7.00
2019-04-04T06:03:42.919Z,7.10
2019-04-04T06:06:11.374Z,7.00
2019-04-04T06:08:43.100Z,7.00
2019-04-04T06:11:09.986Z,7.00
2019-04-04T06:13:38.682Z,7.00
2019-04-04T06:16:07.408Z,7.00
2019-04-04T06:18:35.843Z,7.00
2019-04-04T06:21:04.290Z,6.90
2019-04-04T06:23:32.730Z,7.00
2019-04-04T06:26:01.209Z,7.00
2019-04-04T06:28:29.913Z,6.90
2019-04-04T06:31:00.733Z,6.90
2019-04-04T06:33:28.551Z,7.00
2019-04-04T06:35:57.072Z,7.00
2019-04-04T06:38:25.807Z,7.10
2019-04-04T06:40:54.237Z,7.10
2019-04-04T06:43:22.694Z,7.10
2019-04-04T06:45:51.142Z,7.00
2019-04-04T06:48:19.594Z,7.00
2019-04-04T06:50:48.049Z,7.00
2019-04-04T06:53:16.770Z,7.10
2019-04-04T06:55:45.204Z,7.10
2019-04-04T06:58:13.700Z,7.10
2019-04-04T07:00:42.676Z,7.10
2019-04-04T07:03:11.107Z,7.00
2019-04-04T07:05:39.822Z,7.00
2019-04-04T07:08:08.278Z,7.10
2019-04-04T07:10:37.059Z,7.10
2019-04-04T07:13:20.630Z,7.10
2019-04-04T07:15:46.173Z,7.10
2019-04-04T07:18:06.152Z,7.10
2019-04-04T07:20:34.606Z,7.00
2019-04-04T07:23:03.134Z,7.00
2019-04-04T07:25:32.242Z,7.00
2019-04-04T07:28:00.942Z,7.10
2019-04-04T07:30:29.406Z,7.10
2019-04-04T07:32:57.870Z,7.10
2019-04-04T07:35:26.381Z,7.10
2019-04-04T07:37:57.480Z,7.10
2019-04-04T07:40:25.264Z,7.10
2019-04-04T07:42:54.014Z,7.20
2019-04-04T07:45:25.848Z,7.10
2019-04-04T07:47:52.972Z,7.10
2019-04-04T07:50:21.409Z,7.20
2019-04-04T07:52:50.119Z,7.30
2019-04-04T07:55:18.847Z,7.30
2019-04-04T07:57:50.861Z,7.30
2019-04-04T08:00:17.848Z,7.20
2019-04-04T08:02:46.549Z,7.30
2019-04-04T08:05:15.103Z,7.40
2019-04-04T08:07:43.607Z,7.30
2019-04-04T08:10:20.630Z,7.30
2019-04-04T08:12:42.370Z,7.20
2019-04-04T08:15:10.968Z,7.30
2019-04-04T08:17:39.414Z,7.30
2019-04-04T08:20:08.647Z,7.30
2019-04-04T08:22:39.671Z,7.40
2019-04-04T08:25:07.425Z,7.40
2019-04-04T08:27:35.946Z,7.40
2019-04-04T08:30:06.902Z,7.40
2019-04-04T08:32:35.621Z,7.60
2019-04-04T08:35:06.160Z,7.60
2019-04-04T08:37:34.620Z,7.70
2019-04-04T08:40:04.408Z,7.70
2019-04-04T08:42:32.874Z,7.70
2019-04-04T08:45:01.300Z,7.60
2019-04-04T08:47:29.734Z,7.50
2019-04-04T08:49:58.191Z,7.50
2019-04-04T08:52:26.626Z,7.50
2019-04-04T08:54:55.449Z,7.60
2019-04-04T08:57:24.145Z,7.60
2019-04-04T08:59:52.605Z,7.70
2019-04-04T09:02:21.299Z,7.70
2019-04-04T09:04:49.753Z,7.80
2019-04-04T09:07:18.181Z,7.80
2019-04-04T09:09:46.731Z,7.70
2019-04-04T09:12:15.578Z,7.80
2019-04-04T09:14:44.078Z,7.80
2019-04-04T09:17:12.803Z,7.80
2019-04-04T09:19:41.243Z,7.90
2019-04-04T09:22:10.974Z,7.90
2019-04-04T09:24:39.830Z,8.00
2019-04-04T09:27:08.275Z,8.00
2019-04-04T09:29:37.002Z,8.00
2019-04-04T09:32:05.854Z,8.10
2019-04-04T09:34:34.552Z,8.10
2019-04-04T09:37:02.985Z,8.00
2019-04-04T09:39:31.436Z,8.00
2019-04-04T09:42:00.131Z,8.00
2019-04-04T09:44:28.577Z,7.90
2019-04-04T09:47:05.243Z,8.00
2019-04-04T09:49:27.185Z,8.00
2019-04-04T09:51:55.880Z,7.90
2019-04-04T09:54:24.606Z,7.90
2019-04-04T09:56:53.042Z,7.90
2019-04-04T09:59:21.496Z,8.00
2019-04-04T10:01:49.921Z,8.10
2019-04-04T10:04:18.608Z,8.10
2019-04-04T10:06:47.326Z,8.20
2019-04-04T10:09:16.440Z,8.20
2019-04-04T10:11:45.797Z,8.40
2019-04-04T10:14:17.153Z,8.50
2019-04-04T10:16:45.611Z,8.50
2019-04-04T10:19:14.115Z,8.70
2019-04-04T10:21:42.858Z,8.80
2019-04-04T10:24:11.284Z,8.90
2019-04-04T10:26:39.970Z,8.90
2019-04-04T10:29:08.422Z,9.00
2019-04-04T10:31:36.856Z,9.00
2019-04-04T10:34:05.550Z,9.10
2019-04-04T10:36:33.980Z,9.00
2019-04-04T10:39:02.697Z,9.00
2019-04-04T10:41:31.128Z,8.90
2019-04-04T10:43:59.589Z,8.70
2019-04-04T10:46:28.013Z,8.70
2019-04-04T10:48:56.745Z,8.80
2019-04-04T10:51:25.187Z,8.90
2019-04-04T10:53:53.613Z,8.90
2019-04-04T10:56:22.066Z,8.90
2019-04-04T10:58:50.496Z,8.80
2019-04-04T11:01:18.971Z,8.80
2019-04-04T11:03:47.466Z,8.80
2019-04-04T11:06:15.916Z,8.60
2019-04-04T11:08:44.618Z,8.60
2019-04-04T11:11:13.071Z,8.60
2019-04-04T11:13:41.830Z,8.60
2019-04-04T11:16:10.617Z,8.50
2019-04-04T11:18:39.311Z,8.40
2019-04-04T11:21:07.734Z,8.40
2019-04-04T11:23:36.185Z,8.20
2019-04-04T11:26:05.075Z,8.10
2019-04-04T11:28:33.794Z,8.10
2019-04-04T11:31:02.228Z,7.90
2019-04-04T11:33:30.680Z,8.00
2019-04-04T11:35:59.388Z,7.90
2019-04-04T11:38:28.172Z,8.00
2019-04-04T11:40:56.924Z,7.90
2019-04-04T11:43:25.747Z,7.60
2019-04-04T11:45:54.185Z,7.60
2019-04-04T11:48:22.940Z,7.50
2019-04-04T11:50:51.403Z,7.50
2019-04-04T11:53:20.106Z,7.40
2019-04-04T11:55:48.552Z,7.20
2019-04-04T11:58:16.984Z,7.20
2019-04-04T12:00:50.027Z,7.30
2019-04-04T12:03:18.726Z,7.10
2019-04-04T12:05:47.182Z,7.20
2019-04-04T12:08:15.614Z,7.20
2019-04-04T12:10:44.069Z,7.10
2019-04-04T12:13:12.773Z,7.00
2019-04-04T12:15:41.482Z,6.90
2019-04-04T12:18:09.922Z,7.00
2019-04-04T12:20:38.403Z,6.90
2019-04-04T12:23:06.837Z,6.90
2019-04-04T12:25:35.273Z,6.90
2019-04-04T12:28:03.728Z,7.00
2019-04-04T12:30:32.167Z,7.00
2019-04-04T12:33:00.628Z,7.20
2019-04-04T12:35:29.310Z,7.20
2019-04-04T12:37:58.022Z,7.10
2019-04-04T12:40:26.785Z,7.10
2019-04-04T12:42:55.238Z,7.10
2019-04-04T12:45:23.922Z,7.20
2019-04-04T12:47:52.620Z,7.30
2019-04-04T12:50:21.308Z,7.40
2019-04-04T12:52:49.768Z,7.60
2019-04-04T12:55:18.204Z,7.80
2019-04-04T12:57:46.662Z,8.10
2019-04-04T13:00:15.511Z,8.40
2019-04-04T13:02:43.945Z,8.50
2019-04-04T13:05:12.463Z,8.30
2019-04-04T13:07:40.893Z,8.00
2019-04-04T13:10:11.847Z,7.90
2019-04-04T13:12:40.225Z,8.00
2019-04-04T13:15:09.323Z,8.10
2019-04-04T13:17:37.760Z,8.20
2019-04-04T13:20:07.303Z,8.30
2019-04-04T13:22:36.183Z,8.70
2019-04-04T13:25:09.012Z,8.90
2019-04-04T13:27:37.816Z,8.90
2019-04-04T13:30:09.188Z,8.80
2019-04-04T13:32:37.953Z,8.50
2019-04-04T13:35:06.908Z,8.20
2019-04-04T13:37:35.609Z,8.20
2019-04-04T13:40:05.883Z,8.20
2019-04-04T13:42:34.603Z,8.20
2019-04-04T13:45:03.549Z,8.10
2019-04-04T13:47:32.009Z,8.00
2019-04-04T13:50:00.441Z,7.90
2019-04-04T13:52:29.147Z,7.70
2019-04-04T13:54:57.917Z,7.60
2019-04-04T13:57:26.617Z,7.50
2019-04-04T13:59:55.456Z,7.20
2019-04-04T14:02:25.030Z,7.10
2019-04-04T14:04:55.323Z,7.10
2019-04-04T14:07:23.632Z,7.10
2019-04-04T14:09:52.366Z,7.00
2019-04-04T14:12:21.067Z,7.00
2019-04-04T14:14:49.786Z,7.10
2019-04-04T14:17:18.264Z,7.10
2019-04-04T14:19:46.739Z,7.10
2019-04-04T14:22:15.421Z,7.00
2019-04-04T14:24:43.873Z,6.90
2019-04-04T14:27:12.585Z,6.90
2019-04-04T14:29:41.095Z,7.10
2019-04-04T14:32:09.777Z,7.10
2019-04-04T14:34:38.207Z,7.10
2019-04-04T14:37:06.982Z,7.10
2019-04-04T14:39:35.413Z,6.90
2019-04-04T14:42:04.033Z,6.80
2019-04-04T14:44:32.468Z,6.80
2019-04-04T14:47:00.920Z,6.90
2019-04-04T14:49:29.340Z,6.70
2019-04-04T14:51:57.801Z,6.70
2019-04-04T14:54:28.921Z,6.60
2019-04-04T14:56:56.408Z,6.50
2019-04-04T14:59:24.897Z,6.50
2019-04-04T15:01:53.349Z,6.50
2019-04-04T15:04:22.050Z,6.40
2019-04-04T15:06:50.493Z,6.50
2019-04-04T15:09:18.991Z,6.60
2019-04-04T15:11:47.452Z,6.60
2019-04-04T15:14:15.899Z,6.50
2019-04-04T15:16:44.340Z,6.20
2019-04-04T15:19:12.782Z,6.00
2019-04-04T15:21:41.318Z,5.90
2019-04-04T15:24:09.826Z,5.90
2019-04-04T15:26:38.255Z,5.90
2019-04-04T15:29:06.706Z,5.90
2019-04-04T15:31:35.131Z,5.90
2019-04-04T15:34:03.981Z,5.90
2019-04-04T15:36:32.412Z,6.00
2019-04-04T15:39:01.263Z,5.90
2019-04-04T15:41:36.683Z,5.90
2019-04-04T15:44:00.130Z,6.00
2019-04-04T15:46:28.580Z,6.00
2019-04-04T15:48:57.025Z,6.00
2019-04-04T15:51:25.483Z,6.00
2019-04-04T15:53:54.182Z,6.20
2019-04-04T15:56:22.890Z,6.20
2019-04-04T15:58:54.425Z,6.20
2019-04-04T16:01:22.881Z,6.20
2019-04-04T16:03:51.588Z,6.20
2019-04-04T16:06:20.121Z,6.20
2019-04-04T16:08:48.550Z,6.10
2019-04-04T16:11:16.988Z,6.20
2019-04-04T16:13:45.706Z,6.10
2019-04-04T16:16:14.384Z,6.10
2019-04-04T16:18:42.846Z,6.00
2019-04-04T16:21:11.534Z,5.90
2019-04-04T16:23:40.055Z,5.90
2019-04-04T16:26:08.493Z,5.90
2019-04-04T16:28:36.936Z,5.90
2019-04-04T16:31:05.628Z,5.90
2019-04-04T16:33:34.321Z,5.90
2019-04-04T16:36:05.407Z,5.80
2019-04-04T16:38:33.508Z,5.70
2019-04-04T16:41:01.954Z,5.70
2019-04-04T16:43:30.714Z,5.70
2019-04-04T16:45:59.182Z,5.50
2019-04-04T16:48:27.621Z,5.40
2019-04-04T16:50:56.327Z,5.30
2019-04-04T16:53:25.018Z,5.30
2019-04-04T16:55:53.725Z,5.30
2019-04-04T16:58:22.230Z,5.30
2019-04-04T17:01:11.953Z,5.20
2019-04-04T17:03:40.834Z,5.20
2019-04-04T17:06:09.382Z,5.10
2019-04-04T17:08:37.883Z,5.00
2019-04-04T17:11:06.400Z,4.90
2019-04-04T17:13:34.842Z,4.90
2019-04-04T17:16:03.326Z,4.80
2019-04-04T17:18:31.770Z,4.80
2019-04-04T17:21:00.192Z,4.80
2019-04-04T17:23:28.720Z,4.80
2019-04-04T17:25:57.197Z,4.80
2019-04-04T17:28:26.057Z,4.80
2019-04-04T17:30:54.557Z,4.80
2019-04-04T17:33:23.094Z,4.80
2019-04-04T17:35:51.911Z,4.70
2019-04-04T17:38:20.632Z,4.70
2019-04-04T17:40:49.137Z,4.70
2019-04-04T17:43:17.641Z,4.70
2019-04-04T17:45:46.469Z,4.70
2019-04-04T17:48:15.343Z,4.70
2019-04-04T17:50:43.890Z,4.70
2019-04-04T17:53:12.601Z,4.60
2019-04-04T17:55:41.299Z,4.50
2019-04-04T17:58:10.570Z,4.50
2019-04-04T18:00:39.517Z,4.50
2019-04-04T18:03:07.967Z,4.40
2019-04-04T18:05:36.677Z,4.50
2019-04-04T18:08:05.454Z,4.40
2019-04-04T18:10:34.206Z,4.40
2019-04-04T18:13:02.914Z,4.40
2019-04-04T18:15:31.620Z,4.40
2019-04-04T18:18:00.088Z,4.30
2019-04-04T18:20:28.861Z,4.30
2019-04-04T18:22:57.568Z,4.30
2019-04-04T18:25:26.015Z,4.30
2019-04-04T18:27:54.731Z,4.40
2019-04-04T18:30:23.163Z,4.40
2019-04-04T18:32:51.626Z,4.40
2019-04-04T18:35:20.105Z,4.40
2019-04-04T18:37:48.606Z,4.30
2019-04-04T18:40:17.535Z,4.40
2019-04-04T18:42:53.232Z,4.30
2019-04-04T18:45:16.540Z,4.30
2019-04-04T18:47:44.971Z,4.40
2019-04-04T18:50:13.862Z,4.30
2019-04-04T18:52:42.298Z,4.30
2019-04-04T18:55:19.468Z,4.20
2019-04-04T18:57:41.320Z,4.20
2019-04-04T19:00:11.981Z,4.20
2019-04-04T19:02:40.954Z,4.20
2019-04-04T19:05:09.752Z,4.20
2019-04-04T19:07:39.573Z,4.30
2019-04-04T19:10:08.744Z,4.40
2019-04-04T19:12:37.463Z,4.30
2019-04-04T19:15:08.045Z,4.30
2019-04-04T19:17:36.814Z,4.20
2019-04-04T19:20:10.521Z,4.20
2019-04-04T19:22:39.258Z,4.20
2019-04-04T19:25:08.434Z,4.20
2019-04-04T19:27:37.051Z,4.30
2019-04-04T19:30:09.264Z,4.20
2019-04-04T19:32:37.807Z,4.10
2019-04-04T19:35:07.841Z,3.70
2019-04-04T19:37:36.297Z,3.50
2019-04-04T19:40:07.385Z,3.60
2019-04-04T19:42:36.098Z,3.60
2019-04-04T19:45:07.583Z,3.70
2019-04-04T19:47:37.339Z,3.80
2019-04-04T19:50:10.833Z,3.70
2019-04-04T19:52:39.325Z,3.70
2019-04-04T19:55:08.283Z,3.60
2019-04-04T19:57:36.709Z,3.60
2019-04-04T20:00:08.360Z,3.50
2019-04-04T20:02:36.829Z,3.60
2019-04-04T20:05:06.412Z,3.60
2019-04-04T20:07:34.850Z,3.60
2019-04-04T20:10:04.996Z,3.70
2019-04-04T20:12:33.437Z,3.70
2019-04-04T20:15:02.074Z,3.70
2019-04-04T20:17:30.779Z,3.70
2019-04-04T20:19:59.218Z,3.80
2019-04-04T20:22:27.696Z,3.70
2019-04-04T20:24:57.622Z,3.80
2019-04-04T20:27:26.246Z,3.70
2019-04-04T20:29:54.691Z,3.70
2019-04-04T20:32:23.147Z,3.70
2019-04-04T20:34:51.585Z,3.80
2019-04-04T20:37:20.048Z,3.70
2019-04-04T20:39:48.741Z,3.70
2019-04-04T20:42:17.209Z,3.70
2019-04-04T20:44:45.906Z,3.70
2019-04-04T20:47:14.360Z,3.60
2019-04-04T20:49:42.804Z,3.60
2019-04-04T20:52:11.527Z,3.60
2019-04-04T20:54:40.686Z,3.60
2019-04-04T20:57:09.469Z,3.60
2019-04-04T20:59:38.177Z,3.60
2019-04-04T21:02:06.615Z,3.60
2019-04-04T21:04:35.078Z,3.60
2019-04-04T21:07:03.532Z,3.50
2019-04-04T21:09:32.005Z,3.50
2019-04-04T21:12:00.892Z,3.40
2019-04-04T21:14:29.349Z,3.40
2019-04-04T21:16:57.864Z,3.50
2019-04-04T21:19:26.561Z,3.50
2019-04-04T21:21:55.279Z,3.50
2019-04-04T21:24:23.725Z,3.60
2019-04-04T21:26:52.438Z,3.60
2019-04-04T21:29:21.123Z,3.60
2019-04-04T21:31:49.857Z,3.60
2019-04-04T21:34:18.736Z,3.60
2019-04-04T21:36:47.216Z,3.50
2019-04-04T21:39:15.656Z,3.50
2019-04-04T21:41:44.091Z,3.60
2019-04-04T21:44:12.544Z,3.50
2019-04-04T21:46:41.011Z,3.60
2019-04-04T21:49:09.649Z,3.50
2019-04-04T21:51:38.082Z,3.50
2019-04-04T21:54:06.550Z,3.60
2019-04-04T21:56:35.338Z,3.60
2019-04-04T21:59:04.054Z,3.60
2019-04-04T22:01:32.759Z,3.60
2019-04-04T22:04:01.230Z,3.50
2019-04-04T22:06:29.920Z,3.50
2019-04-04T22:09:13.413Z,3.50
2019-04-04T22:11:42.107Z,3.40
2019-04-04T22:14:21.121Z,3.50
2019-04-04T22:16:41.466Z,3.40
2019-04-04T22:19:09.905Z,3.40
2019-04-04T22:21:38.379Z,3.40
2019-04-04T22:24:07.097Z,3.40
2019-04-04T22:26:35.558Z,3.40
2019-04-04T22:29:04.076Z,3.30
2019-04-04T22:31:32.554Z,3.30
2019-04-04T22:34:01.308Z,3.20
2019-04-04T22:36:30.001Z,3.20
2019-04-04T22:38:58.460Z,3.30
2019-04-04T22:41:26.897Z,3.20
2019-04-04T22:44:03.396Z,3.20
2019-04-04T22:46:25.795Z,3.20
2019-04-04T22:48:54.255Z,3.30
2019-04-04T22:51:22.699Z,3.30
2019-04-04T22:53:51.181Z,3.40
2019-04-04T22:56:19.630Z,3.30
2019-04-04T22:58:48.070Z,3.40
2019-04-04T23:01:16.530Z,3.40
2019-04-04T23:03:45.238Z,3.50
2019-04-04T23:06:13.706Z,3.50
2019-04-04T23:08:42.159Z,3.40
2019-04-04T23:11:10.640Z,3.40
2019-04-04T23:13:39.157Z,3.40
2019-04-04T23:16:07.619Z,3.40
2019-04-04T23:18:36.323Z,3.40
2019-04-04T23:21:04.794Z,3.50
2019-04-04T23:23:33.245Z,3.50
2019-04-04T23:26:02.026Z,3.60
2019-04-04T23:28:30.552Z,3.50
2019-04-04T23:30:59.003Z,3.50
2019-04-04T23:33:27.465Z,3.40
2019-04-04T23:35:55.909Z,3.50
2019-04-04T23:38:24.366Z,3.40
2019-04-04T23:40:52.814Z,3.50
2019-04-04T23:43:21.299Z,3.50
2019-04-04T23:45:50.070Z,3.50
2019-04-04T23:48:18.761Z,3.60
2019-04-04T23:50:47.218Z,3.60
2019-04-04T23:53:15.735Z,3.60
2019-04-04T23:55:44.450Z,3.60
2019-04-04T23:58:12.893Z,3.60
